createdAt,value
2019-02-11T00:01:54.815Z,99095.58
2019-02-11T00:04:37.885Z,99095.88
2019-02-11T00:07:28.272Z,99093.75
2019-02-11T00:10:11.686Z,99109.84
2019-02-11T00:12:43.073Z,99117.18
2019-02-11T00:15:33.511Z,99121.91
2019-02-11T00:18:23.916Z,99134.04
2019-02-11T00:21:06.577Z,99130.27
2019-02-11T00:23:49.506Z,99144.58
2019-02-11T00:26:39.922Z,99142.17
2019-02-11T00:29:23.153Z,99148.96
2019-02-11T00:32:13.529Z,99168.05
2019-02-11T00:34:56.818Z,99181.73
2019-02-11T00:37:47.674Z,99175.42
2019-02-11T00:40:51.708Z,99193.55
2019-02-11T00:43:42.116Z,99196.89
2019-02-11T00:46:25.056Z,99206.36
2019-02-11T00:49:15.797Z,99201.08
2019-02-11T00:51:59.028Z,99216.78
2019-02-11T00:54:49.521Z,99212.65
2019-02-11T00:57:33.000Z,99230.19
2019-02-11T01:00:23.389Z,99231.52
2019-02-11T01:03:06.283Z,99254.66
2019-02-11T01:05:56.697Z,99257.06
2019-02-11T01:08:39.475Z,99258.31
2019-02-11T01:14:57.879Z,99262.41
2019-02-11T01:17:48.265Z,99281.75
2019-02-11T01:20:31.534Z,99286.11
2019-02-11T01:23:21.948Z,99294.28
2019-02-11T01:26:04.598Z,99302.83
2019-02-11T01:28:54.993Z,99307.66
2019-02-11T01:31:38.671Z,99306.58
2019-02-11T01:34:29.094Z,99318.83
2019-02-11T01:37:12.731Z,99323.97
2019-02-11T01:40:03.201Z,99328.23
2019-02-11T01:42:46.312Z,99332.66
2019-02-11T01:45:37.132Z,99330.81
2019-02-11T01:48:20.262Z,99342.55
2019-02-11T01:51:10.633Z,99336.66
2019-02-11T01:54:13.305Z,99344.42
2019-02-11T01:57:04.035Z,99350.33
2019-02-11T01:59:47.003Z,99353.60
2019-02-11T02:02:37.485Z,99361.33
2019-02-11T02:05:20.385Z,99373.64
2019-02-11T02:11:13.300Z,99377.91
2019-02-11T02:14:03.719Z,99376.25
2019-02-11T02:16:47.087Z,99379.88
2019-02-11T02:19:37.504Z,99384.74
2019-02-11T02:22:21.016Z,99382.39
2019-02-11T02:25:12.395Z,99404.73
2019-02-11T02:27:55.462Z,99411.59
2019-02-11T02:34:03.755Z,99424.73
2019-02-11T02:36:54.148Z,99436.48
2019-02-11T02:39:37.654Z,99437.75
2019-02-11T02:42:28.014Z,99433.59
2019-02-11T02:45:10.669Z,99441.34
2019-02-11T02:48:01.041Z,99446.47
2019-02-11T02:50:43.721Z,99448.29
2019-02-11T02:53:26.472Z,99459.58
2019-02-11T02:56:16.815Z,99460.22
2019-02-11T02:59:00.211Z,99462.77
2019-02-11T03:01:50.581Z,99458.13
2019-02-11T03:04:33.485Z,99459.42
2019-02-11T03:07:23.859Z,99473.61
2019-02-11T03:10:07.812Z,99488.82
2019-02-11T03:12:58.175Z,99491.43
2019-02-11T03:15:40.852Z,99497.00
2019-02-11T03:18:31.227Z,99497.64
2019-02-11T03:21:14.271Z,99492.58
2019-02-11T03:24:04.622Z,99505.63
2019-02-11T03:26:47.897Z,99506.48
2019-02-11T03:29:38.258Z,99515.05
2019-02-11T03:32:21.517Z,99518.93
2019-02-11T03:35:11.848Z,99519.82
2019-02-11T03:38:02.211Z,99531.06
2019-02-11T03:40:45.387Z,99532.72
2019-02-11T03:43:35.753Z,99536.98
2019-02-11T03:46:18.418Z,99543.95
2019-02-11T03:49:08.753Z,99541.05
2019-02-11T03:51:51.955Z,99552.34
2019-02-11T03:54:34.646Z,99558.45
2019-02-11T03:57:24.964Z,99564.09
2019-02-11T04:00:08.474Z,99566.79
2019-02-11T04:02:58.882Z,99571.56
2019-02-11T04:05:41.382Z,99586.30
2019-02-11T04:08:31.752Z,99595.55
2019-02-11T04:11:14.239Z,99599.97
2019-02-11T04:14:04.576Z,99609.13
2019-02-11T04:16:47.721Z,99614.33
2019-02-11T04:19:38.075Z,99618.23
2019-02-11T04:22:21.244Z,99624.26
2019-02-11T04:25:11.579Z,99638.84
2019-02-11T04:27:54.900Z,99637.75
2019-02-11T04:30:45.260Z,99642.47
2019-02-11T04:33:28.101Z,99652.60
2019-02-11T04:36:18.421Z,99653.70
2019-02-11T04:39:01.325Z,99655.88
2019-02-11T04:41:51.650Z,99663.04
2019-02-11T04:44:35.046Z,99673.31
2019-02-11T04:47:25.344Z,99676.67
2019-02-11T04:50:08.397Z,99682.45
2019-02-11T04:52:58.733Z,99691.77
2019-02-11T04:55:42.339Z,99694.02
2019-02-11T04:58:32.684Z,99697.45
2019-02-11T05:01:23.048Z,99704.59
2019-02-11T05:04:06.483Z,99713.72
2019-02-11T05:06:56.822Z,99713.28
2019-02-11T05:09:59.731Z,99719.44
2019-02-11T05:12:50.106Z,99725.03
2019-02-11T05:15:33.672Z,99730.31
2019-02-11T05:18:24.030Z,99732.24
2019-02-11T05:21:07.461Z,99741.76
2019-02-11T05:23:57.798Z,99743.17
2019-02-11T05:26:40.818Z,99749.38
2019-02-11T05:29:31.188Z,99750.14
2019-02-11T05:32:13.997Z,99749.27
2019-02-11T05:38:33.158Z,99760.77
2019-02-11T05:41:23.480Z,99759.83
2019-02-11T05:44:06.609Z,99756.34
2019-02-11T05:46:56.961Z,99774.59
2019-02-11T05:49:40.094Z,99775.59
2019-02-11T05:52:30.503Z,99782.42
2019-02-11T05:55:13.693Z,99784.61
2019-02-11T05:58:04.022Z,99781.50
2019-02-11T06:00:46.827Z,99792.92
2019-02-11T06:03:37.156Z,99798.70
2019-02-11T06:06:20.647Z,99798.25
2019-02-11T06:09:11.033Z,99801.30
2019-02-11T06:11:53.786Z,99805.72
2019-02-11T06:14:44.167Z,99821.73
2019-02-11T06:17:27.365Z,99826.58
2019-02-11T06:20:17.724Z,99829.94
2019-02-11T06:23:00.868Z,99847.27
2019-02-11T06:25:51.259Z,99845.59
2019-02-11T06:28:34.478Z,99865.02
2019-02-11T06:31:24.826Z,99876.77
2019-02-11T06:34:07.815Z,99886.75
2019-02-11T06:36:58.210Z,99892.87
2019-02-11T06:39:41.588Z,99897.33
2019-02-11T06:42:31.948Z,99911.13
2019-02-11T06:45:22.353Z,99906.72
2019-02-11T06:48:05.650Z,99912.53
2019-02-11T06:50:56.001Z,99928.95
2019-02-11T06:53:39.338Z,99934.59
2019-02-11T06:56:22.330Z,99945.54
2019-02-11T06:59:12.680Z,99954.72
2019-02-11T07:01:55.480Z,99958.52
2019-02-11T07:04:45.835Z,99967.36
2019-02-11T07:07:29.383Z,99974.33
2019-02-11T07:10:19.744Z,99980.95
2019-02-11T07:13:02.950Z,99991.78
2019-02-11T07:15:53.326Z,99990.41
2019-02-11T07:18:37.177Z,99993.98
2019-02-11T07:21:40.009Z,100000.55
2019-02-11T07:24:30.370Z,99996.15
2019-02-11T07:27:13.601Z,100015.41
2019-02-11T07:33:33.267Z,100022.35
2019-02-11T07:36:23.673Z,100045.67
2019-02-11T07:39:14.056Z,100049.97
2019-02-11T07:42:15.778Z,100055.86
2019-02-11T07:48:26.743Z,100052.25
2019-02-11T07:51:17.083Z,100065.81
2019-02-11T07:53:59.680Z,100072.59
2019-02-11T07:56:42.525Z,100074.33
2019-02-11T07:59:33.303Z,100078.14
2019-02-11T08:02:16.289Z,100086.47
2019-02-11T08:05:06.821Z,100085.33
2019-02-11T08:07:49.444Z,100082.11
2019-02-11T08:10:39.822Z,100108.72
2019-02-11T08:13:22.976Z,100116.55
2019-02-11T08:16:13.351Z,100114.19
2019-02-11T08:18:56.239Z,100120.72
2019-02-11T08:21:46.716Z,100124.09
2019-02-11T08:24:49.897Z,100123.88
2019-02-11T08:27:40.299Z,100133.66
2019-02-11T08:30:23.332Z,100135.52
2019-02-11T08:33:13.706Z,100147.28
2019-02-11T08:36:16.316Z,100152.50
2019-02-11T08:42:30.131Z,100156.82
2019-02-11T08:45:20.482Z,100169.05
2019-02-11T08:48:23.018Z,100167.47
2019-02-11T08:51:13.429Z,100174.59
2019-02-11T08:53:56.845Z,100180.45
2019-02-11T08:56:47.180Z,100185.56
2019-02-11T08:59:30.487Z,100188.34
2019-02-11T09:02:20.856Z,100194.44
2019-02-11T09:05:03.523Z,100203.02
2019-02-11T09:07:53.908Z,100209.66
2019-02-11T09:10:37.325Z,100217.70
2019-02-11T09:13:27.659Z,100215.34
2019-02-11T09:16:10.326Z,100219.53
2019-02-11T09:19:00.735Z,100216.92
2019-02-11T09:21:44.066Z,100229.11
2019-02-11T09:24:27.008Z,100242.48
2019-02-11T09:27:17.351Z,100247.34
2019-02-11T09:30:00.613Z,100243.42
2019-02-11T09:32:43.649Z,100245.09
2019-02-11T09:35:34.025Z,100259.19
2019-02-11T09:38:24.626Z,100258.84
2019-02-11T09:41:07.266Z,100263.36
2019-02-11T09:43:57.689Z,100264.54
2019-02-11T09:46:40.570Z,100264.97
2019-02-11T09:49:31.096Z,100266.27
2019-02-11T09:52:13.594Z,100282.53
2019-02-11T09:58:32.606Z,100291.73
2019-02-11T10:01:23.002Z,100297.61
2019-02-11T10:04:06.431Z,100307.33
2019-02-11T10:06:56.818Z,100309.55
2019-02-11T10:09:47.936Z,100312.22
2019-02-11T10:12:51.720Z,100313.77
2019-02-11T10:15:42.081Z,100324.50
2019-02-11T10:18:25.169Z,100328.14
2019-02-11T10:21:15.629Z,100330.88
2019-02-11T10:23:58.472Z,100340.42
2019-02-11T10:26:48.841Z,100343.77
2019-02-11T10:29:31.499Z,100357.77
2019-02-11T10:32:14.298Z,100355.59
2019-02-11T10:35:04.776Z,100365.23
2019-02-11T10:37:55.151Z,100368.53
2019-02-11T10:40:38.453Z,100372.11
2019-02-11T10:43:28.819Z,100373.02
2019-02-11T10:46:11.957Z,100385.66
2019-02-11T10:49:02.332Z,100385.92
2019-02-11T10:51:44.973Z,100396.93
2019-02-11T10:54:35.330Z,100396.42
2019-02-11T10:57:18.058Z,100399.94
2019-02-11T11:00:10.953Z,100406.52
2019-02-11T11:02:53.559Z,100406.02
2019-02-11T11:05:43.930Z,100412.14
2019-02-11T11:08:26.904Z,100416.31
2019-02-11T11:11:17.252Z,100437.84
2019-02-11T11:14:00.068Z,100432.59
2019-02-11T11:16:50.438Z,100439.58
2019-02-11T11:19:33.576Z,100443.23
2019-02-11T11:22:23.888Z,100455.81
2019-02-11T11:25:06.607Z,100458.04
2019-02-11T11:27:56.944Z,100461.05
2019-02-11T11:30:59.688Z,100462.25
2019-02-11T11:33:42.387Z,100473.94
2019-02-11T11:36:32.722Z,100477.28
2019-02-11T11:42:25.096Z,100489.94
2019-02-11T11:45:10.021Z,100488.80
2019-02-11T11:48:00.372Z,100504.37
2019-02-11T11:50:43.017Z,100495.06
2019-02-11T11:53:33.392Z,100505.80
2019-02-11T11:56:16.201Z,100506.77
2019-02-11T11:59:06.775Z,100513.34
2019-02-11T12:02:09.929Z,100520.42
2019-02-11T12:05:00.316Z,100514.14
2019-02-11T12:08:04.472Z,100512.14
2019-02-11T12:10:54.852Z,100508.94
2019-02-11T12:13:37.867Z,100518.62
2019-02-11T12:16:28.231Z,100519.62
2019-02-11T12:19:11.689Z,100531.34
2019-02-11T12:22:02.066Z,100531.72
2019-02-11T12:24:44.675Z,100536.50
2019-02-11T12:27:35.091Z,100552.55
2019-02-11T12:30:19.320Z,100560.31
2019-02-11T12:33:09.743Z,100562.70
2019-02-11T12:35:53.007Z,100568.24
2019-02-11T12:38:43.393Z,100558.02
2019-02-11T12:41:26.159Z,100575.57
2019-02-11T12:44:16.506Z,100580.76
2019-02-11T12:47:13.264Z,100583.34
2019-02-11T12:49:52.063Z,100590.89
2019-02-11T12:52:34.659Z,100594.92
2019-02-11T12:55:17.425Z,100602.72
2019-02-11T12:58:07.806Z,100605.06
2019-02-11T13:00:50.391Z,100610.70
2019-02-11T13:03:40.782Z,100627.20
2019-02-11T13:06:23.970Z,100620.29
2019-02-11T13:09:06.978Z,100620.14
2019-02-11T13:11:57.422Z,100626.06
2019-02-11T13:14:40.511Z,100626.95
2019-02-11T13:17:34.429Z,100628.92
2019-02-11T13:20:42.700Z,100628.30
2019-02-11T13:23:33.131Z,100627.89
2019-02-11T13:26:36.528Z,100641.80
2019-02-11T13:29:26.908Z,100641.34
2019-02-11T13:32:10.800Z,100637.20
2019-02-11T13:34:54.569Z,100639.95
2019-02-11T13:37:45.065Z,100660.83
2019-02-11T13:40:35.508Z,100659.31
2019-02-11T13:43:18.308Z,100670.37
2019-02-11T13:46:08.702Z,100673.61
2019-02-11T13:48:51.791Z,100686.41
2019-02-11T13:51:42.282Z,100693.45
2019-02-11T13:54:24.167Z,100681.91
2019-02-11T13:57:06.875Z,100688.83
2019-02-11T13:59:49.522Z,100704.70
2019-02-11T14:06:31.504Z,100717.05
2019-02-11T14:09:14.279Z,100726.74
2019-02-11T14:12:04.657Z,100731.64
2019-02-11T14:14:35.945Z,100739.54
2019-02-11T14:21:25.754Z,100752.61
2019-02-11T14:24:09.090Z,100760.47
2019-02-11T14:26:59.501Z,100767.02
2019-02-11T14:29:42.774Z,100780.81
2019-02-11T14:32:33.165Z,100780.38
2019-02-11T14:35:16.931Z,100784.80
2019-02-11T14:38:07.373Z,100783.06
2019-02-11T14:40:50.066Z,100787.41
2019-02-11T14:43:40.514Z,100792.22
2019-02-11T14:46:23.462Z,100798.58
2019-02-11T14:49:13.898Z,100816.16
2019-02-11T14:51:56.591Z,100818.88
2019-02-11T14:54:47.861Z,100818.30
2019-02-11T14:57:51.581Z,100822.61
2019-02-11T15:00:41.947Z,100823.84
2019-02-11T15:03:24.576Z,100826.94
2019-02-11T15:06:14.951Z,100824.83
2019-02-11T15:08:57.600Z,100824.91
2019-02-11T15:11:40.652Z,100842.95
2019-02-11T15:14:31.006Z,100849.38
2019-02-11T15:17:13.784Z,100853.63
2019-02-11T15:20:04.205Z,100857.59
2019-02-11T15:22:47.643Z,100860.39
2019-02-11T15:25:37.981Z,100856.83
2019-02-11T15:28:21.345Z,100863.16
2019-02-11T15:31:11.715Z,100874.49
2019-02-11T15:33:54.868Z,100884.87
2019-02-11T15:36:45.214Z,100888.36
2019-02-11T15:39:28.320Z,100896.85
2019-02-11T15:42:18.684Z,100904.13
2019-02-11T15:45:02.229Z,100916.42
2019-02-11T15:47:52.573Z,100924.20
2019-02-11T15:50:35.976Z,100921.50
2019-02-11T15:53:26.318Z,100940.98
2019-02-11T15:56:09.147Z,100934.36
2019-02-11T15:58:59.520Z,100949.22
2019-02-11T16:01:42.865Z,100959.77
2019-02-11T16:04:33.214Z,100973.33
2019-02-11T16:07:36.178Z,100985.87
2019-02-11T16:10:20.015Z,100987.42
2019-02-11T16:13:10.451Z,100999.97
2019-02-11T16:15:53.548Z,101012.66
2019-02-11T16:18:51.625Z,101016.00
2019-02-11T16:21:48.710Z,101037.68
2019-02-11T16:27:51.460Z,101051.63
2019-02-11T16:30:41.866Z,101076.61
2019-02-11T16:33:25.478Z,101078.31
2019-02-11T16:36:15.898Z,101098.45
2019-02-11T16:42:29.469Z,101103.34
2019-02-11T16:45:12.035Z,101119.34
2019-02-11T16:48:02.743Z,101129.05
2019-02-11T16:50:45.513Z,101124.83
2019-02-11T16:53:36.483Z,101133.52
2019-02-11T16:56:19.421Z,101138.97
2019-02-11T16:59:02.707Z,101155.25
2019-02-11T17:01:53.094Z,101165.37
2019-02-11T17:04:35.801Z,101173.23
2019-02-11T17:07:26.213Z,101184.17
2019-02-11T17:10:09.894Z,101194.17
2019-02-11T17:13:00.254Z,101205.48
2019-02-11T17:15:43.400Z,101210.72
2019-02-11T17:18:33.822Z,101213.48
2019-02-11T17:21:17.232Z,101226.55
2019-02-11T17:24:07.648Z,101229.14
2019-02-11T17:26:50.620Z,101238.44
2019-02-11T17:29:40.972Z,101248.91
2019-02-11T17:32:23.881Z,101249.78
2019-02-11T17:35:07.194Z,101253.70
2019-02-11T17:37:57.598Z,101262.51
2019-02-11T17:40:40.807Z,101267.84
2019-02-11T17:43:23.704Z,101280.53
2019-02-11T17:46:14.115Z,101289.69
2019-02-11T17:49:17.957Z,101292.31
2019-02-11T17:52:10.686Z,101302.37
2019-02-11T17:54:53.485Z,101289.19
2019-02-11T17:57:43.995Z,101306.72
2019-02-11T18:00:31.801Z,101293.13
2019-02-11T18:03:42.115Z,101311.06
2019-02-11T18:06:25.312Z,101307.64
2019-02-11T18:12:18.071Z,101313.91
2019-02-11T18:15:27.638Z,101317.03
2019-02-11T18:18:10.715Z,101322.25
2019-02-11T18:21:01.093Z,101332.75
2019-02-11T18:23:43.891Z,101333.69
2019-02-11T18:26:34.246Z,101325.90
2019-02-11T18:29:17.236Z,101328.55
2019-02-11T18:32:07.617Z,101337.31
2019-02-11T18:34:50.340Z,101336.45
2019-02-11T18:37:40.677Z,101341.70
2019-02-11T18:40:23.462Z,101353.51
2019-02-11T18:43:13.839Z,101353.50
2019-02-11T18:45:56.634Z,101362.23
2019-02-11T18:48:46.990Z,101358.34
2019-02-11T18:51:29.745Z,101359.69
2019-02-11T18:54:20.121Z,101366.69
2019-02-11T18:57:03.046Z,101375.42
2019-02-11T18:59:53.468Z,101388.50
2019-02-11T19:02:36.755Z,101387.62
2019-02-11T19:05:27.144Z,101396.38
2019-02-11T19:08:10.481Z,101401.18
2019-02-11T19:11:00.949Z,101407.30
2019-02-11T19:13:43.938Z,101415.14
2019-02-11T19:16:34.384Z,101412.14
2019-02-11T19:19:16.991Z,101406.47
2019-02-11T19:22:07.433Z,101399.12
2019-02-11T19:25:10.796Z,101386.94
2019-02-11T19:28:01.359Z,101392.19
2019-02-11T19:30:43.952Z,101396.95
2019-02-11T19:33:34.351Z,101391.33
2019-02-11T19:36:17.478Z,101391.32
2019-02-11T19:42:18.267Z,101389.17
2019-02-11T19:45:10.302Z,101413.09
2019-02-11T19:48:01.262Z,101428.76
2019-02-11T19:50:51.996Z,101436.16
2019-02-11T19:53:35.130Z,101434.42
2019-02-11T19:56:25.606Z,101437.47
2019-02-11T19:59:08.726Z,101441.41
2019-02-11T20:01:59.153Z,101432.70
2019-02-11T20:04:41.847Z,101423.16
2019-02-11T20:07:32.974Z,101431.40
2019-02-11T20:10:16.029Z,101422.30
2019-02-11T20:13:06.585Z,101425.75
2019-02-11T20:15:49.663Z,101432.72
2019-02-11T20:18:40.071Z,101444.00
2019-02-11T20:21:23.607Z,101457.94
2019-02-11T20:24:14.065Z,101462.70
2019-02-11T20:26:56.820Z,101470.11
2019-02-11T20:29:47.153Z,101468.35
2019-02-11T20:32:29.766Z,101478.80
2019-02-11T20:35:20.175Z,101480.53
2019-02-11T20:38:03.730Z,101490.95
2019-02-11T20:40:54.823Z,101501.39
2019-02-11T20:43:38.412Z,101513.57
2019-02-11T20:46:28.782Z,101517.03
2019-02-11T20:49:11.537Z,101515.75
2019-02-11T20:52:01.918Z,101524.02
2019-02-11T20:54:45.495Z,101525.33
2019-02-11T20:57:35.867Z,101535.30
2019-02-11T21:00:19.279Z,101538.34
2019-02-11T21:03:09.684Z,101546.63
2019-02-11T21:05:53.249Z,101545.73
2019-02-11T21:08:43.636Z,101537.48
2019-02-11T21:11:26.722Z,101539.66
2019-02-11T21:14:17.077Z,101542.70
2019-02-11T21:17:01.311Z,101538.36
2019-02-11T21:20:32.443Z,101541.84
2019-02-11T21:23:20.044Z,101553.58
2019-02-11T21:26:10.411Z,101559.22
2019-02-11T21:28:53.895Z,101560.09
2019-02-11T21:35:12.595Z,101580.09
2019-02-11T21:38:03.168Z,101573.16
2019-02-11T21:40:45.723Z,101578.38
2019-02-11T21:43:36.151Z,101588.81
2019-02-11T21:46:18.901Z,101592.72
2019-02-11T21:49:09.282Z,101589.69
2019-02-11T21:51:52.323Z,101587.92
2019-02-11T21:54:42.682Z,101591.86
2019-02-11T21:57:26.281Z,101606.20
2019-02-11T22:00:10.140Z,101607.52
2019-02-11T22:03:00.609Z,101607.96
2019-02-11T22:05:43.815Z,101612.74
2019-02-11T22:08:34.194Z,101616.22
2019-02-11T22:11:17.400Z,101609.69
2019-02-11T22:14:07.766Z,101613.60
2019-02-11T22:16:50.545Z,101614.05
2019-02-11T22:19:40.968Z,101617.96
2019-02-11T22:22:23.655Z,101623.16
2019-02-11T22:25:14.155Z,101625.79
2019-02-11T22:27:57.566Z,101619.69
2019-02-11T22:30:48.542Z,101604.91
2019-02-11T22:33:31.901Z,101610.56
2019-02-11T22:36:22.255Z,101602.29
2019-02-11T22:39:06.971Z,101603.63
2019-02-11T22:41:57.345Z,101597.09
2019-02-11T22:44:40.223Z,101602.31
2019-02-11T22:47:30.591Z,101605.80
2019-02-11T22:50:13.099Z,101604.91
2019-02-11T22:53:03.449Z,101622.76
2019-02-11T22:55:46.795Z,101621.88
2019-02-11T22:58:37.197Z,101631.44
2019-02-11T23:01:21.077Z,101634.48
2019-02-11T23:04:11.386Z,101646.68
2019-02-11T23:06:54.320Z,101630.15
2019-02-11T23:09:44.612Z,101638.40
2019-02-11T23:12:28.085Z,101649.27
2019-02-11T23:15:18.421Z,101653.63
2019-02-11T23:18:01.047Z,101658.84
2019-02-11T23:20:52.358Z,101668.87
2019-02-11T23:23:55.587Z,101669.30
2019-02-11T23:26:45.987Z,101665.35
2019-02-11T23:29:29.339Z,101646.67
2019-02-11T23:32:19.713Z,101638.39
2019-02-11T23:35:03.161Z,101642.73
2019-02-11T23:37:53.557Z,101658.83
2019-02-11T23:40:36.151Z,101657.11
2019-02-11T23:43:26.474Z,101664.05
2019-02-11T23:46:09.250Z,101659.67
2019-02-11T23:48:59.622Z,101675.31
2019-02-11T23:51:42.497Z,101681.40
2019-02-11T23:54:32.873Z,101682.68
2019-02-11T23:57:16.122Z,101687.46
